地図

経路データ

SID SEASON NUMBER BASIN SUBBASIN NAME ISO_TIME NATURE LAT LON WMO_WIND WMO_PRES WMO_AGENCY TRACK_TYPE DIST2LAND LANDFALL IFLAG USA_AGENCY USA_ATCF_ID USA_LAT USA_LON USA_RECORD USA_STATUS USA_WIND USA_PRES USA_SSHS USA_R34_NE USA_R34_SE USA_R34_SW USA_R34_NW USA_R50_NE USA_R50_SE USA_R50_SW USA_R50_NW USA_R64_NE USA_R64_SE USA_R64_SW USA_R64_NW USA_POCI USA_ROCI USA_RMW USA_EYE TOKYO_LAT TOKYO_LON TOKYO_GRADE TOKYO_WIND TOKYO_PRES TOKYO_R50_DIR TOKYO_R50_LONG TOKYO_R50_SHORT TOKYO_R30_DIR TOKYO_R30_LONG TOKYO_R30_SHORT TOKYO_LAND CMA_LAT CMA_LON CMA_CAT CMA_WIND CMA_PRES HKO_LAT HKO_LON HKO_CAT HKO_WIND HKO_PRES NEWDELHI_LAT NEWDELHI_LON NEWDELHI_GRADE NEWDELHI_WIND NEWDELHI_PRES NEWDELHI_CI NEWDELHI_DP NEWDELHI_POCI REUNION_LAT REUNION_LON REUNION_TYPE REUNION_WIND REUNION_PRES REUNION_TNUM REUNION_CI REUNION_RMW REUNION_R34_NE REUNION_R34_SE REUNION_R34_SW REUNION_R34_NW REUNION_R50_NE REUNION_R50_SE REUNION_R50_SW REUNION_R50_NW REUNION_R64_NE REUNION_R64_SE REUNION_R64_SW REUNION_R64_NW BOM_LAT BOM_LON BOM_TYPE BOM_WIND BOM_PRES BOM_TNUM BOM_CI BOM_RMW BOM_R34_NE BOM_R34_SE BOM_R34_SW BOM_R34_NW BOM_R50_NE BOM_R50_SE BOM_R50_SW BOM_R50_NW BOM_R64_NE BOM_R64_SE BOM_R64_SW BOM_R64_NW BOM_ROCI BOM_POCI BOM_EYE BOM_POS_METHOD BOM_PRES_METHOD NADI_LAT NADI_LON NADI_CAT NADI_WIND NADI_PRES WELLINGTON_LAT WELLINGTON_LON WELLINGTON_WIND WELLINGTON_PRES DS824_LAT DS824_LON DS824_STAGE DS824_WIND DS824_PRES TD9636_LAT TD9636_LON TD9636_STAGE TD9636_WIND TD9636_PRES TD9635_LAT TD9635_LON TD9635_WIND TD9635_PRES TD9635_ROCI NEUMANN_LAT NEUMANN_LON NEUMANN_CLASS NEUMANN_WIND NEUMANN_PRES MLC_LAT MLC_LON MLC_CLASS MLC_WIND MLC_PRES USA_GUST BOM_GUST BOM_GUST_PER REUNION_GUST REUNION_GUST_PER USA_SEAHGT USA_SEARAD_NE USA_SEARAD_SE USA_SEARAD_SW USA_SEARAD_NW STORM_SPEED STORM_DIR
1994019S17174 1994 7 SP MM SARAH 1994-01-18 12:00:00 TS -17.3000 173.800 main 368 368 O___________O_ jtwc_sh SH111994 -17.3000 173.800 15 -1 -17.3000 173.800 TC 15 6 308
1994019S17174 1994 7 SP MM SARAH 1994-01-18 15:00:00 TS -17.1026 173.537 main 405 405 P___________P_ SH111994 -17.1026 173.537 15 -1 -17.1026 173.537 TC 15 6 310
1994019S17174 1994 7 SP MM SARAH 1994-01-18 18:00:00 TS -16.9000 173.300 main 431 431 O___________O_ jtwc_sh SH111994 -16.9000 173.300 15 -1 -16.9000 173.300 TC 15 6 314
1994019S17174 1994 7 SP MM SARAH 1994-01-18 21:00:00 TS -16.6924 173.100 main 458 458 P___________P_ SH111994 -16.6924 173.100 17 -1 -16.6924 173.100 TC 17 6 316
1994019S17174 1994 7 SP MM SARAH 1994-01-19 00:00:00 TS -16.5000 172.900 main 486 486 O___________O_ jtwc_sh SH111994 -16.5000 172.900 20 -1 -16.5000 172.900 TC 20 6 310
1994019S17174 1994 7 SP MM SARAH 1994-01-19 03:00:00 TS -16.3350 172.650 main 514 491 P___________P_ SH111994 -16.3350 172.650 22 -1 -16.3350 172.650 TC 22 5 294
1994019S17174 1994 7 SP MM SARAH 1994-01-19 06:00:00 TS -16.2889 172.411 main 491 469 O_______O___O_ jtwc_sh SH111994 -16.2000 172.400 25 -1 -17.0000 172.500 25 1000 -16.2000 172.400 TC 25 5 297
1994019S17174 1994 7 SP MM SARAH 1994-01-19 09:00:00 TS -16.1075 172.185 main 470 449 P___________P_ SH111994 -16.1075 172.185 25 -1 -16.1075 172.185 TC 25 5 306
1994019S17174 1994 7 SP MM SARAH 1994-01-19 12:00:00 TS -16.0000 172.000 main 449 439 O___________O_ jtwc_sh SH111994 -16.0000 172.000 25 -1 -16.0000 172.000 TC 25 4 310
1994019S17174 1994 7 SP MM SARAH 1994-01-19 15:00:00 TS -15.8300 171.843 main 431 422 P___________P_ SH111994 -15.8300 171.843 25 -1 -15.8300 171.843 TC 25 5 324
1994019S17174 1994 7 SP MM SARAH 1994-01-19 18:00:00 TS -15.6000 171.700 main 424 416 O___________O_ jtwc_sh SH111994 -15.6000 171.700 25 -1 -15.6000 171.700 TC 25 6 333
1994019S17174 1994 7 SP MM SARAH 1994-01-19 21:00:00 TS -15.2850 171.557 main 421 408 P___________P_ SH111994 -15.2850 171.557 25 -1 -15.2850 171.557 TC 25 7 334
1994019S17174 1994 7 SP MM SARAH 1994-01-20 00:00:00 TS -15.0000 171.400 main 412 396 O___________O_ jtwc_sh SH111994 -15.0000 171.400 25 -1 -15.0000 171.400 TC 25 5 321
1994019S17174 1994 7 SP MM SARAH 1994-01-20 03:00:00 TS -14.8775 171.215 main 396 381 P___________P_ SH111994 -14.8775 171.215 25 -1 -14.8775 171.215 TC 25 4 297
1994019S17174 1994 7 SP MM SARAH 1994-01-20 06:00:00 TS -14.8000 171.000 main 381 373 O___________O_ jtwc_sh SH111994 -14.8000 171.000 25 -1 -14.8000 171.000 TC 25 5 307
1994019S17174 1994 7 SP MM SARAH 1994-01-20 09:00:00 TS -14.5896 170.825 main 373 352 P___________P_ SH111994 -14.5896 170.825 25 -1 -14.5896 170.825 TC 25 6 302
1994019S17174 1994 7 SP MM SARAH 1994-01-20 12:00:00 TS -14.5000 170.500 main 352 287 O___________O_ jtwc_sh SH111994 -14.5000 170.500 25 -1 -14.5000 170.500 TC 25 9 261
1994019S17174 1994 7 SP MM SARAH 1994-01-20 15:00:00 TS -14.7326 169.883 main 287 201 P___________P_ SH111994 -14.7326 169.883 25 -1 -14.7326 169.883 TC 25 14 244
1994019S17174 1994 7 SP MM SARAH 1994-01-20 18:00:00 TS -15.1111 169.200 nadi main 201 94 O___________O_ jtwc_sh SH111994 -15.1000 169.100 25 -1 -15.2000 170.000 -15.1000 169.100 TC 25 18 239
1994019S17174 1994 7 SP MM SARAH 1994-01-20 21:00:00 TS -15.6707 168.286 main 85 0 P___________P_ SH111994 -15.4523 168.323 25 -1 -16.5444 168.138 -15.4523 168.323 TC 25 22 240
1994019S17174 1994 7 SP MM SARAH 1994-01-21 00:00:00 TS -16.1909 167.227 nadi main 11 11 O___________O_ jtwc_sh SH111994 -15.7000 167.500 25 -1 -17.5000 166.500 -15.7000 167.500 TC 25 22 250
1994019S17174 1994 7 SP MM SARAH 1994-01-21 03:00:00 TS -16.4030 166.171 main 101 101 P___________P_ SH111994 -15.7028 166.597 25 -1 -17.8032 165.319 -15.7028 166.597 TC 25 17 269
1994019S17174 1994 7 SP MM SARAH 1994-01-21 06:00:00 TS -16.2123 165.422 nadi main 156 156 O___________O_ jtwc_sh SH111994 -15.6000 165.800 25 -1 -17.6000 164.700 -15.6000 165.800 TC 25 11 291
1994019S17174 1994 7 SP MM SARAH 1994-01-21 09:00:00 TS -15.9903 165.077 main 174 174 P___________P_ SH111994 -15.5496 165.253 27 -1 -17.1245 164.688 -15.5496 165.253 TC 27 7 314
1994019S17174 1994 7 SP MM SARAH 1994-01-21 12:00:00 TS -15.7467 164.920 nadi main 185 185 O_______O___O_ jtwc_sh SH111994 -15.5000 164.900 30 -1 -16.5000 164.900 -15.4000 165.000 30 996 -15.5000 164.900 TC 30 5 323
1994019S17174 1994 7 SP MM SARAH 1994-01-21 15:00:00 TS -15.5574 164.740 main 204 204 P_______P___P_ SH111994 -15.4573 164.663 30 -1 -16.0125 164.810 -15.3001 164.812 30 996 -15.4573 164.663 TC 30 5 314
1994019S17174 1994 7 SP MM SARAH 1994-01-21 18:00:00 TS -15.4000 164.550 nadi main 214 214 O_______O___O_ jtwc_sh SH111994 -15.4000 164.500 30 -1 -15.6000 164.600 -15.2000 164.600 30 996 -15.4000 164.500 TC 30 5 307
1994019S17174 1994 7 SP MM SARAH 1994-01-21 21:00:00 TS -15.2444 164.306 main 240 240 P_______P___P_ SH111994 -15.3150 164.308 32 -1 -15.2476 164.307 -15.1001 164.300 32 995 -15.3150 164.308 TC 32 6 302
1994019S17174 1994 7 SP MM SARAH 1994-01-22 00:00:00 TS -15.1000 164.050 nadi main 260 260 O_______O___O_ jtwc_sh SH111994 -15.2000 164.100 35 0 -15.0000 164.000 -15.0000 164.000 35 995 -15.2000 164.100 TC 35 5 301
1994019S17174 1994 7 SP MM SARAH 1994-01-22 03:00:00 TS -14.9712 163.833 main 291 290 P_______P___P_ SH111994 -15.0574 163.880 40 0 -14.8699 163.785 -14.8999 163.785 37 992 -15.0574 163.880 TC 40 5 300
1994019S17174 1994 7 SP MM SARAH 1994-01-22 06:00:00 TS -14.8500 163.600 nadi main 311 311 O_______O___O_ jtwc_sh SH111994 -14.9000 163.600 45 0 -14.8000 163.600 -14.8000 163.600 40 990 -14.9000 163.600 TC 45 6 296
1994019S17174 1994 7 SP MM SARAH 1994-01-22 09:00:00 TS -14.7175 163.304 main 344 344 P_______P___P_ SH111994 -14.7352 163.185 50 0 -14.6999 163.423 -14.6999 163.423 42 988 -14.7352 163.185 TC 50 6 293
1994019S17174 1994 7 SP MM SARAH 1994-01-22 12:00:00 TS -14.6000 163.000 nadi main 377 377 O_______O___O_ jtwc_sh SH111994 -14.6000 162.800 55 0 -14.6000 163.200 -14.6000 163.200 45 987 -14.6000 162.800 TC 55 6 290
1994019S17174 1994 7 SP MM SARAH 1994-01-22 15:00:00 TS -14.5212 162.739 main 410 410 P_______P___P_ SH111994 -14.5424 162.620 60 0 -14.5001 162.857 -14.5001 162.857 50 983 -14.5424 162.620 TC 60 5 287
1994019S17174 1994 7 SP MM SARAH 1994-01-22 18:00:00 TS -14.4500 162.500 nadi main 403 391 O_______O___O_ jtwc_sh SH111994 -14.5000 162.500 65 1 -14.4000 162.500 -14.4000 162.500 55 980 -14.5000 162.500 TC 65 5 291
1994019S17174 1994 7 SP MM SARAH 1994-01-22 21:00:00 TS -14.3425 162.256 main 391 391 P_______P___P_ SH111994 -14.3925 162.285 72 1 -14.2924 162.228 -14.2924 162.228 57 977 -14.3925 162.285 TC 72 5 295
1994019S17174 1994 7 SP MM SARAH 1994-01-23 00:00:00 TS -14.2500 162.050 nadi main 380 380 O_______O___O_ jtwc_sh SH111994 -14.3000 162.100 80 1 -14.2000 162.000 -14.2000 162.000 60 975 -14.3000 162.100 TC 80 4 290
1994019S17174 1994 7 SP MM SARAH 1994-01-23 03:00:00 TS -14.2175 161.895 main 380 380 P_______P___P_ SH111994 -14.2925 162.043 85 2 -14.1425 161.748 -14.1425 161.748 62 972 -14.2925 162.043 TC 85 2 282
1994019S17174 1994 7 SP MM SARAH 1994-01-23 06:00:00 TS -14.2000 161.800 nadi main 380 369 O_______O___O_ jtwc_sh SH111994 -14.3000 162.000 90 2 -14.1000 161.600 -14.1000 161.600 65 970 -14.3000 162.000 TC 90 2 304
1994019S17174 1994 7 SP MM SARAH 1994-01-23 09:00:00 TS -14.1350 161.764 main 369 369 P_______P___P_ SH111994 -14.2500 161.857 92 2 -14.0200 161.670 -14.0200 161.670 67 967 -14.2500 161.857 TC 92 1 333
1994019S17174 1994 7 SP MM SARAH 1994-01-23 12:00:00 TS -14.1000 161.750 nadi main 369 369 O_______O___O_ jtwc_sh SH111994 -14.2000 161.700 95 2 -14.0000 161.800 -14.0000 161.800 70 965 -14.2000 161.700 TC 95 1 258
1994019S17174 1994 7 SP MM SARAH 1994-01-23 15:00:00 TS -14.1487 161.693 main 369 369 P_______P___P_ SH111994 -14.1700 161.570 97 3 -14.1275 161.815 -14.1275 161.815 72 962 -14.1700 161.570 TC 97 2 212
1994019S17174 1994 7 SP MM SARAH 1994-01-23 18:00:00 TS -14.2500 161.650 nadi main 380 392 O_______O___O_ jtwc_sh SH111994 -14.2000 161.500 100 3 -14.3000 161.800 -14.3000 161.800 75 960 -14.2000 161.500 TC 100 2 187
1994019S17174 1994 7 SP MM SARAH 1994-01-23 21:00:00 TS -14.3637 161.664 main 403 403 P_______P___P_ SH111994 -14.3275 161.527 100 3 -14.4000 161.800 -14.4000 161.800 77 957 -14.3275 161.527 TC 100 3 167
1994019S17174 1994 7 SP MM SARAH 1994-01-24 00:00:00 TS -14.5000 161.700 nadi main 414 414 O_______O___O_ jtwc_sh SH111994 -14.5000 161.600 100 3 -14.5000 161.800 -14.5000 161.800 80 955 -14.5000 161.600 TC 100 3 169
1994019S17174 1994 7 SP MM SARAH 1994-01-24 03:00:00 TS -14.6462 161.721 main 425 425 P_______P___P_ SH111994 -14.6500 161.643 100 3 -14.6425 161.800 -14.6425 161.800 80 955 -14.6500 161.643 TC 100 3 175
1994019S17174 1994 7 SP MM SARAH 1994-01-24 06:00:00 TS -14.8000 161.750 nadi main 447 447 O_______O___O_ jtwc_sh SH111994 -14.8000 161.700 100 3 -14.8000 161.800 -14.8000 161.800 80 955 -14.8000 161.700 TC 100 3 173
1994019S17174 1994 7 SP MM SARAH 1994-01-24 09:00:00 TS -14.9650 161.770 main 470 470 P_______P___P_ SH111994 -14.9575 161.785 100 3 -14.9724 161.755 -14.9724 161.755 80 952 -14.9575 161.785 TC 100 3 163
1994019S17174 1994 7 SP MM SARAH 1994-01-24 12:00:00 TS -15.1000 161.850 nadi main 481 481 O_______O___O_ jtwc_sh SH111994 -15.1000 161.900 100 3 -15.1000 161.800 -15.1000 161.800 80 950 -15.1000 161.900 TC 100 3 126
1994019S17174 1994 7 SP MM SARAH 1994-01-24 15:00:00 TS -15.1575 162.045 main 485 453 P_______P___P_ SH111994 -15.2075 162.028 100 3 -15.1076 162.063 -15.1076 162.063 80 950 -15.2075 162.028 TC 100 4 103
1994019S17174 1994 7 SP MM SARAH 1994-01-24 18:00:00 TS -15.2000 162.300 nadi main 453 432 O_______O___O_ jtwc_sh SH111994 -15.3000 162.200 100 3 -15.1000 162.400 -15.1000 162.400 80 950 -15.3000 162.200 TC 100 5 104
1994019S17174 1994 7 SP MM SARAH 1994-01-24 21:00:00 TS -15.2737 162.531 main 433 403 P_______P___P_ SH111994 -15.3850 162.420 100 3 -15.1624 162.643 -15.1624 162.643 82 947 -15.3850 162.420 TC 100 5 112
1994019S17174 1994 7 SP MM SARAH 1994-01-25 00:00:00 TS -15.4000 162.800 nadi main 403 373 O_______O___O_ jtwc_sh SH111994 -15.5000 162.700 100 3 -15.3000 162.900 -15.3000 162.900 85 945 -15.5000 162.700 TC 100 7 119
1994019S17174 1994 7 SP MM SARAH 1994-01-25 03:00:00 TS -15.5988 163.135 main 375 335 P_______P___P_ SH111994 -15.6775 163.028 100 3 -15.5200 163.242 -15.5200 163.242 85 945 -15.6775 163.028 TC 100 8 124
1994019S17174 1994 7 SP MM SARAH 1994-01-25 06:00:00 TS -15.8500 163.500 nadi main 335 309 O_______O___O_ jtwc_sh SH111994 -15.9000 163.400 100 3 -15.8000 163.600 -15.8000 163.600 85 945 -15.9000 163.400 TC 100 9 127
1994019S17174 1994 7 SP MM SARAH 1994-01-25 09:00:00 TS -16.1174 163.839 main 309 280 P_______P___P_ SH111994 -16.1350 163.793 100 3 -16.0998 163.885 -16.0998 163.885 85 945 -16.1350 163.793 TC 100 9 129
1994019S17174 1994 7 SP MM SARAH 1994-01-25 12:00:00 TS -16.4000 164.200 nadi main 280 258 O_______O___O_ jtwc_sh SH111994 -16.4000 164.200 100 3 -16.4000 164.200 -16.4000 164.200 85 945 -16.4000 164.200 TC 100 9 127
1994019S17174 1994 7 SP MM SARAH 1994-01-25 15:00:00 TS -16.6825 164.618 main 258 234 P_______P___P_ SH111994 -16.6999 164.600 100 3 -16.6651 164.635 -16.6651 164.635 85 945 -16.6999 164.600 TC 100 10 124
1994019S17174 1994 7 SP MM SARAH 1994-01-25 18:00:00 TS -16.9500 165.050 nadi main 225 212 O_______O___O_ jtwc_sh SH111994 -17.0000 165.000 100 3 -16.9000 165.100 -16.9000 165.100 85 945 -17.0000 165.000 TC 100 9 121
1994019S17174 1994 7 SP MM SARAH 1994-01-25 21:00:00 TS -17.1524 165.447 main 219 192 P_______P___P_ SH111994 -17.2349 165.393 97 3 -17.0698 165.500 -17.0698 165.500 85 945 -17.2349 165.393 TC 97 9 121
1994019S17174 1994 7 SP MM SARAH 1994-01-26 00:00:00 TS -17.4000 165.850 nadi main 188 185 O_______O___O_ jtwc_sh SH111994 -17.5000 165.800 95 2 -17.3000 165.900 -17.3000 165.900 85 945 -17.5000 165.800 TC 95 11 129
1994019S17174 1994 7 SP MM SARAH 1994-01-26 03:00:00 TS -17.8063 166.307 main 185 185 P_______P___P_ SH111994 -17.8775 166.243 95 2 -17.7351 166.372 -17.7351 166.372 85 945 -17.8775 166.243 TC 95 12 135
1994019S17174 1994 7 SP MM SARAH 1994-01-26 06:00:00 TS -18.2500 166.750 nadi main 193 204 O_______O___O_ jtwc_sh SH111994 -18.3000 166.700 95 2 -18.2000 166.800 -18.2000 166.800 85 945 -18.3000 166.700 TC 95 11 136
1994019S17174 1994 7 SP MM SARAH 1994-01-26 09:00:00 TS -18.5886 167.108 main 227 226 P_______P___P_ SH111994 -18.6925 167.165 92 2 -18.4847 167.051 -18.4847 167.051 82 947 -18.6925 167.165 TC 92 10 137
1994019S17174 1994 7 SP MM SARAH 1994-01-26 12:00:00 TS -18.9500 167.450 nadi main 257 268 O_______O___O_ jtwc_sh SH111994 -19.1000 167.600 90 2 -18.8000 167.300 -18.8000 167.300 80 950 -19.1000 167.600 TC 90 11 140
1994019S17174 1994 7 SP MM SARAH 1994-01-26 15:00:00 TS -19.4351 167.857 main 300 274 P_______P___P_ SH111994 -19.5499 167.973 90 2 -19.3202 167.742 -19.3202 167.742 80 952 -19.5499 167.973 TC 90 13 143
1994019S17174 1994 7 SP MM SARAH 1994-01-26 18:00:00 TS -19.9500 168.250 nadi main 281 252 O_______O___O_ jtwc_sh SH111994 -20.0000 168.300 90 2 -19.9000 168.200 -19.9000 168.200 80 955 -20.0000 168.300 TC 90 12 147
1994019S17174 1994 7 SP MM SARAH 1994-01-26 21:00:00 TS -20.4259 168.532 main 252 243 P_______P___P_ SH111994 -20.4148 168.585 87 2 -20.4370 168.478 -20.4370 168.478 77 957 -20.4148 168.585 TC 87 11 148
1994019S17174 1994 7 SP MM SARAH 1994-01-27 00:00:00 TS -20.8500 168.850 nadi main 251 244 O_______O___O_ jtwc_sh SH111994 -20.8000 168.900 85 2 -20.9000 168.800 -20.9000 168.800 75 960 -20.8000 168.900 TC 85 11 135
1994019S17174 1994 7 SP MM SARAH 1994-01-27 03:00:00 TS -21.2052 169.352 main 271 267 P_______P___P_ SH111994 -21.1725 169.320 82 1 -21.2380 169.385 -21.2380 169.385 72 962 -21.1725 169.320 TC 82 12 124
1994019S17174 1994 7 SP MM SARAH 1994-01-27 06:00:00 TS -21.5000 169.900 nadi main 309 309 O_______O___O_ jtwc_sh SH111994 -21.5000 169.800 80 1 -21.5000 170.000 -21.5000 170.000 70 965 -21.5000 169.800 TC 80 11 120
1994019S17174 1994 7 SP MM SARAH 1994-01-27 09:00:00 TS -21.7535 170.362 main 353 353 P_______P___P_ SH111994 -21.7575 170.300 75 1 -21.7496 170.423 -21.7496 170.423 70 965 -21.7575 170.300 TC 75 10 121
1994019S17174 1994 7 SP MM SARAH 1994-01-27 12:00:00 TS -22.0000 170.800 nadi main 391 391 O_______O___O_ jtwc_sh SH111994 -22.0000 170.800 70 1 -22.0000 170.800 -22.0000 170.800 70 965 -22.0000 170.800 TC 70 10 123
1994019S17174 1994 7 SP MM SARAH 1994-01-27 15:00:00 TS -22.3000 171.265 main 442 442 P_______P___P_ SH111994 -22.2999 171.265 67 1 -22.3001 171.265 -22.3001 171.265 67 967 -22.2999 171.265 TC 67 10 126
1994019S17174 1994 7 SP MM SARAH 1994-01-27 18:00:00 TS -22.6000 171.700 nadi main 483 483 O_______O___O_ jtwc_sh SH111994 -22.6000 171.700 65 1 -22.6000 171.700 -22.6000 171.700 65 970 -22.6000 171.700 TC 65 9 128
1994019S17174 1994 7 SP MM SARAH 1994-01-27 21:00:00 TS -22.8646 172.043 main 517 517 P_______P___P_ SH111994 -22.8723 172.108 60 0 -22.8570 171.978 -22.8570 171.978 62 972 -22.8723 172.108 TC 60 8 128
1994019S17174 1994 7 SP MM SARAH 1994-01-28 00:00:00 TS -23.1000 172.400 nadi main 560 560 O_______O___O_ jtwc_sh SH111994 -23.1000 172.500 55 0 -23.1000 172.300 -23.1000 172.300 60 975 -23.1000 172.500 TC 55 9 121
1994019S17174 1994 7 SP MM SARAH 1994-01-28 03:00:00 TS -23.3263 172.881 main 614 614 P_______P___P_ SH111994 -23.2798 172.893 50 0 -23.3729 172.870 -23.3729 172.870 60 975 -23.2798 172.893 TC 50 10 114
1994019S17174 1994 7 SP MM SARAH 1994-01-28 06:00:00 TS -23.5000 173.400 nadi main 668 668 O_______O___O_ jtwc_sh SH111994 -23.4000 173.300 45 0 -23.6000 173.500 -23.6000 173.500 60 975 -23.4000 173.300 TC 45 10 107
1994019S17174 1994 7 SP MM SARAH 1994-01-28 09:00:00 TS -23.6012 173.890 main 709 689 P_______P___P_ SH111994 -23.4650 173.750 42 0 -23.7373 174.030 -23.7373 174.030 60 975 -23.4650 173.750 TC 42 9 100
1994019S17174 1994 7 SP MM SARAH 1994-01-28 12:00:00 TS -23.6500 174.350 nadi main 684 681 O_______O___O_ jtwc_sh SH111994 -23.5000 174.200 40 0 -23.8000 174.500 -23.8000 174.500 60 975 -23.5000 174.200 TC 40 8 96
1994019S17174 1994 7 SP MM SARAH 1994-01-28 15:00:00 TS -23.6823 174.765 main 677 666 P_______P___P_ SH111994 -23.5498 174.608 37 0 -23.8148 174.923 -23.8148 174.923 60 975 -23.5498 174.608 TC 37 7 94
1994019S17174 1994 7 SP MM SARAH 1994-01-28 18:00:00 TS -23.7000 175.150 nadi main 663 652 O_______O___O_ jtwc_sh SH111994 -23.6000 175.000 35 0 -23.8000 175.300 -23.8000 175.300 60 975 -23.6000 175.000 TC 35 7 92
1994019S17174 1994 7 SP MM SARAH 1994-01-28 21:00:00 TS -23.7099 175.533 main 652 638 P_______P___P_ SH111994 -23.6424 175.400 35 0 -23.7774 175.665 -23.7774 175.665 60 975 -23.6424 175.400 TC 35 7 94
1994019S17174 1994 7 SP MM SARAH 1994-01-29 00:00:00 TS -23.7500 175.900 nadi main 638 639 O_______O___O_ jtwc_sh SH111994 -23.7000 175.800 35 0 -23.8000 176.000 -23.8000 176.000 60 975 -23.7000 175.800 TC 35 7 102
1994019S17174 1994 7 SP MM SARAH 1994-01-29 03:00:00 TS -23.8525 176.269 main 647 642 P_______P___P_ SH111994 -23.7925 176.215 32 -1 -23.9125 176.322 -23.9125 176.322 60 975 -23.7925 176.215 TC 32 7 112
1994019S17174 1994 7 SP MM SARAH 1994-01-29 06:00:00 TS -24.0143 176.600 nadi main 651 651 O_______O___O_ jtwc_sh SH111994 -23.9000 176.600 30 -1 -24.1000 176.600 -24.1000 176.600 60 975 -23.9000 176.600 TC 30 7 126
1994019S17174 1994 7 SP MM SARAH 1994-01-29 09:00:00 TS -24.2391 176.860 main 667 667 P_______P___P_ SH111994 -24.0025 176.920 27 -1 -24.3575 176.830 -24.3575 176.830 60 975 -24.0025 176.920 TC 27 6 139
1994019S17174 1994 7 SP MM SARAH 1994-01-29 12:00:00 TS -24.4889 177.044 nadi main 699 698 O_______O___O_ jtwc_sh SH111994 -24.1000 177.200 25 -1 -24.6000 177.000 -24.6000 177.000 60 975 -24.1000 177.200 TC 25 5 152
1994019S17174 1994 7 SP MM SARAH 1994-01-29 15:00:00 NR -24.7066 177.130 main 720 719 ________P_____ SH111994 -1 -24.7350 177.115 -24.6925 177.138 60 975 TC 3 155
1994019S17174 1994 7 SP MM SARAH 1994-01-29 18:00:00 NR -24.8000 177.200 nadi main 730 730 ________O_____ -1 -24.8000 177.200 -24.8000 177.200 60 975 4 175
1994019S17174 1994 7 SP MM SARAH 1994-01-29 21:00:00 NR -25.0700 177.165 main 763 763 ________P_____ -1 -25.0700 177.165 60 975 6 188
1994019S17174 1994 7 SP MM SARAH 1994-01-30 00:00:00 NR -25.4000 177.100 60 975 wellington main 798 798 ________O_____ -1 -25.4000 177.100 60 975 6 187
1994019S17174 1994 7 SP MM SARAH 1994-01-30 03:00:00 NR -25.7075 177.092 main 831 831 ________P_____ -1 -25.7075 177.092 60 975 6 179
1994019S17174 1994 7 SP MM SARAH 1994-01-30 06:00:00 NR -26.0000 177.100 60 975 wellington main 864 864 ________O_____ -1 -26.0000 177.100 60 975 5 184
1994019S17174 1994 7 SP MM SARAH 1994-01-30 09:00:00 NR -26.2498 177.040 main 888 888 ________P_____ -1 -26.2498 177.040 60 975 5 178
1994019S17174 1994 7 SP MM SARAH 1994-01-30 12:00:00 NR -26.5000 177.100 60 975 wellington main 920 920 ________O_____ -1 -26.5000 177.100 60 975 7 147
1994019S17174 1994 7 SP MM SARAH 1994-01-30 15:00:00 NR -26.8077 177.440 main 951 943 ________P_____ -1 -26.8077 177.440 57 977 9 130
1994019S17174 1994 7 SP MM SARAH 1994-01-30 18:00:00 NR -27.1000 177.900 55 980 wellington main 948 943 ________O_____ -1 -27.1000 177.900 55 980 9 123
1994019S17174 1994 7 SP MM SARAH 1994-01-30 21:00:00 NR -27.3075 178.315 main 948 943 ________P_____ -1 -27.3075 178.315 55 980 8 119
1994019S17174 1994 7 SP MM SARAH 1994-01-31 00:00:00 NR -27.5000 178.700 55 980 wellington main 950 943 ________O_____ -1 -27.5000 178.700 55 980 8 125
1994019S17174 1994 7 SP MM SARAH 1994-01-31 03:00:00 NR -27.7423 179.008 main 948 936 ________P_____ -1 -27.7423 179.008 55 980 7 133
1994019S17174 1994 7 SP MM SARAH 1994-01-31 06:00:00 NR -28.0000 179.300 55 980 wellington main 936 928 ________O_____ -1 -28.0000 179.300 55 980 7 133
1994019S17174 1994 7 SP MM SARAH 1994-01-31 09:00:00 NR -28.2270 179.598 main 933 922 ________P_____ -1 -28.2270 179.598 55 980 8 129
1994019S17174 1994 7 SP MM SARAH 1994-01-31 12:00:00 NR -28.5000 180.000 55 980 wellington main 928 924 ________O_____ -1 -28.5000 180.000 55 980 11 126
1994019S17174 1994 7 SP MM SARAH 1994-01-31 15:00:00 NR -28.8853 180.612 main 927 924 ________P_____ -1 -28.8853 -179.388 55 980 14 125
1994019S17174 1994 7 SP MM SARAH 1994-01-31 18:00:00 NR -29.3000 181.300 55 980 wellington main 937 935 ________O_____ -1 -29.3000 -178.700 55 980 13 123
1994019S17174 1994 7 SP MM SARAH 1994-01-31 21:00:00 NR -29.5968 181.887 main 951 930 ________P_____ -1 -29.5968 -178.113 52 982 13 124
1994019S17174 1994 7 SP MM SARAH 1994-02-01 00:00:00 NR -30.0000 182.500 50 985 wellington main 930 896 ________O_____ -1 -30.0000 -177.500 50 985 17 131
1994019S17174 1994 7 SP MM SARAH 1994-02-01 03:00:00 NR -30.6912 183.337 main 891 848 ________P_____ -1 -30.6912 -176.663 50 985 20 139
1994019S17174 1994 7 SP MM SARAH 1994-02-01 06:00:00 NR -31.5000 184.000 50 986 wellington main 848 790 ________O_____ -1 -31.5000 -176.000 50 986 17 156
1994019S17174 1994 7 SP MM SARAH 1994-02-01 09:00:00 NR -32.2567 184.144 main 782 716 ________P_____ -1 -32.2567 -175.856 50 986 15 0
1994019S17174 1994 7 SP MM SARAH 1994-02-01 12:00:00 NR -33.0000 184.000 50 987 wellington main 716 646 ________O_____ -1 -33.0000 -176.000 50 987 15 190
1994019S17174 1994 7 SP MM SARAH 1994-02-01 15:00:00 NR -33.7450 183.838 main 646 579 ________P_____ -1 -33.7450 -176.162 50 987 14 193
1994019S17174 1994 7 SP MM SARAH 1994-02-01 18:00:00 NR -34.4000 183.600 50 988 wellington main 579 523 ________O_____ -1 -34.4000 -176.400 50 988 12 201
1994019S17174 1994 7 SP MM SARAH 1994-02-01 21:00:00 NR -34.8933 183.310 main 523 482 ________P_____ -1 -34.8933 -176.690 50 989 10 204
1994019S17174 1994 7 SP MM SARAH 1994-02-02 00:00:00 NR -35.3000 183.100 50 990 wellington main 482 456 ________O_____ -1 -35.3000 -176.900 50 990 8 197
1994019S17174 1994 7 SP MM SARAH 1994-02-02 03:00:00 NR -35.6225 183.039 main 456 447 ________P_____ -1 -35.6225 -176.961 48 989 6 176
1994019S17174 1994 7 SP MM SARAH 1994-02-02 06:00:00 NR -35.9361 183.166 main 455 445 ________P_____ -1 -35.9361 -176.834 47 988 8 153
1994019S17174 1994 7 SP MM SARAH 1994-02-02 09:00:00 NR -36.3569 183.508 main 457 457 ________P_____ -1 -36.3569 -176.492 46 987 13 145
1994019S17174 1994 7 SP MM SARAH 1994-02-02 12:00:00 NR -37.0000 184.100 45 987 wellington main 491 491 ________O_____ -1 -37.0000 -175.900 45 987 20 144
1994019S17174 1994 7 SP MM SARAH 1994-02-02 15:00:00 NR -37.9830 184.962 main 561 561 ________P_____ -1 -37.9830 -175.038 43 985 27 144
1994019S17174 1994 7 SP MM SARAH 1994-02-02 18:00:00 NR -39.1860 186.092 main 672 672 ________P_____ -1 -39.1860 -173.908 42 983 32 143
1994019S17174 1994 7 SP MM SARAH 1994-02-02 21:00:00 NR -40.5200 187.403 main 809 809 ________P_____ -1 -40.5200 -172.597 41 981 34 143
1994019S17174 1994 7 SP MM SARAH 1994-02-03 00:00:00 NR -41.9000 188.800 40 979 wellington main 961 961 ________O_____ -1 -41.9000 -171.200 40 979 33 143
1994019S17174 1994 7 SP MM SARAH 1994-02-03 03:00:00 NR -43.2079 190.080 main 1103 1103 ________P_____ -1 -43.2079 -169.920 37 978 33 144
1994019S17174 1994 7 SP MM SARAH 1994-02-03 06:00:00 NR -44.5439 191.435 main 1252 1252 ________P_____ -1 -44.5439 -168.565 35 978 33 143
1994019S17174 1994 7 SP MM SARAH 1994-02-03 09:00:00 NR -45.8832 192.897 main 1423 1423 ________P_____ -1 -45.8832 -167.103 32 977 34 141
1994019S17174 1994 7 SP MM SARAH 1994-02-03 12:00:00 NR -47.2000 194.500 30 977 wellington main 1596 1596 ________O_____ -1 -47.2000 -165.500 30 977 35 138
1994019S17174 1994 7 SP MM SARAH 1994-02-03 15:00:00 NR -48.4719 196.270 main 1781 1781 ________P_____ -1 -48.4719 -163.730 30 977 35 135
1994019S17174 1994 7 SP MM SARAH 1994-02-03 18:00:00 NR -49.6953 198.204 main 1955 1955 ________P_____ -1 -49.6953 -161.796 30 977 35 133
1994019S17174 1994 7 SP MM SARAH 1994-02-03 21:00:00 NR -50.8712 200.287 main 2141 2141 ________P_____ -1 -50.8712 -159.713 30 977 35 130
1994019S17174 1994 7 SP MM SARAH 1994-02-04 00:00:00 NR -52.0000 202.500 30 977 wellington main 2326 ________O_____ -1 -52.0000 -157.500 30 977 35 130

デジタル台風データ・検索

IBTrACS Databaseについて

本データベースは、米国NOAAが公開する1842年以降の世界の熱帯低気圧のベストトラックデータアーカイブInternational Best Track Archive for Climate Stewardship (IBTrACS)を、ウェブで閲覧しやすい形式に変換したものです。

最終更新日:2021-11-26